sensor_id;sensor_type;location;lat;lon;timestamp;P1;durP1;ratioP1;P2;durP2;ratioP2
59970;SDS011;45825;45.434;9.116;2023-04-15T00:00:37;5.68;;;0.95;;
59970;SDS011;45825;45.434;9.116;2023-04-15T00:03:03;3.63;;;1.00;;
59970;SDS011;45825;45.434;9.116;2023-04-15T00:05:29;4.13;;;1.20;;
59970;SDS011;45825;45.434;9.116;2023-04-15T00:07:55;3.65;;;1.25;;
59970;SDS011;45825;45.434;9.116;2023-04-15T00:10:21;3.00;;;0.90;;
59970;SDS011;45825;45.434;9.116;2023-04-15T00:12:46;1.83;;;0.80;;
59970;SDS011;45825;45.434;9.116;2023-04-15T00:15:11;4.05;;;1.10;;
59970;SDS011;45825;45.434;9.116;2023-04-15T00:17:37;4.18;;;1.10;;
59970;SDS011;45825;45.434;9.116;2023-04-15T00:20:03;6.00;;;1.35;;
59970;SDS011;45825;45.434;9.116;2023-04-15T00:22:30;4.70;;;1.25;;
59970;SDS011;45825;45.434;9.116;2023-04-15T00:24:57;4.72;;;1.83;;
59970;SDS011;45825;45.434;9.116;2023-04-15T00:27:22;5.68;;;2.28;;
59970;SDS011;45825;45.434;9.116;2023-04-15T00:29:47;7.00;;;3.10;;
59970;SDS011;45825;45.434;9.116;2023-04-15T00:32:13;7.32;;;4.07;;
59970;SDS011;45825;45.434;9.116;2023-04-15T00:34:38;6.95;;;2.38;;
59970;SDS011;45825;45.434;9.116;2023-04-15T00:37:03;3.88;;;1.83;;
59970;SDS011;45825;45.434;9.116;2023-04-15T00:39:29;4.72;;;1.30;;
59970;SDS011;45825;45.434;9.116;2023-04-15T00:41:54;4.40;;;1.20;;
59970;SDS011;45825;45.434;9.116;2023-04-15T00:44:21;4.07;;;1.30;;
59970;SDS011;45825;45.434;9.116;2023-04-15T00:46:47;5.32;;;1.60;;
59970;SDS011;45825;45.434;9.116;2023-04-15T00:49:15;4.22;;;1.77;;
59970;SDS011;45825;45.434;9.116;2023-04-15T00:51:42;5.25;;;1.90;;
59970;SDS011;45825;45.434;9.116;2023-04-15T00:54:07;4.85;;;1.65;;
59970;SDS011;45825;45.434;9.116;2023-04-15T00:56:34;5.30;;;1.55;;
59970;SDS011;45825;45.434;9.116;2023-04-15T00:59:01;3.55;;;1.27;;
59970;SDS011;45825;45.434;9.116;2023-04-15T01:01:27;5.95;;;1.63;;
59970;SDS011;45825;45.434;9.116;2023-04-15T01:03:56;6.50;;;2.22;;
59970;SDS011;45825;45.434;9.116;2023-04-15T01:06:22;4.85;;;1.48;;
59970;SDS011;45825;45.434;9.116;2023-04-15T01:08:48;3.90;;;1.40;;
59970;SDS011;45825;45.434;9.116;2023-04-15T01:11:13;4.95;;;1.52;;
59970;SDS011;45825;45.434;9.116;2023-04-15T01:13:39;3.70;;;1.15;;
59970;SDS011;45825;45.434;9.116;2023-04-15T01:16:05;4.18;;;1.35;;
59970;SDS011;45825;45.434;9.116;2023-04-15T01:18:32;4.53;;;1.50;;
59970;SDS011;45825;45.434;9.116;2023-04-15T01:20:59;5.50;;;1.40;;
59970;SDS011;45825;45.434;9.116;2023-04-15T01:23:26;3.88;;;1.30;;
59970;SDS011;45825;45.434;9.116;2023-04-15T01:25:51;5.57;;;1.52;;
59970;SDS011;45825;45.434;9.116;2023-04-15T01:28:17;4.03;;;1.30;;
59970;SDS011;45825;45.434;9.116;2023-04-15T01:30:43;4.55;;;1.50;;
59970;SDS011;45825;45.434;9.116;2023-04-15T01:33:08;4.15;;;1.50;;
59970;SDS011;45825;45.434;9.116;2023-04-15T01:35:34;4.40;;;1.50;;
59970;SDS011;45825;45.434;9.116;2023-04-15T01:38:06;4.38;;;1.30;;
59970;SDS011;45825;45.434;9.116;2023-04-15T01:40:33;3.83;;;1.20;;
59970;SDS011;45825;45.434;9.116;2023-04-15T01:42:59;4.60;;;1.40;;
59970;SDS011;45825;45.434;9.116;2023-04-15T01:45:25;5.15;;;1.50;;
59970;SDS011;45825;45.434;9.116;2023-04-15T01:47:51;4.68;;;1.48;;
59970;SDS011;45825;45.434;9.116;2023-04-15T01:50:16;5.30;;;1.60;;
59970;SDS011;45825;45.434;9.116;2023-04-15T01:52:42;5.45;;;1.73;;
59970;SDS011;45825;45.434;9.116;2023-04-15T01:55:07;7.15;;;2.03;;
59970;SDS011;45825;45.434;9.116;2023-04-15T01:57:33;6.43;;;2.50;;
59970;SDS011;45825;45.434;9.116;2023-04-15T01:59:59;8.13;;;2.60;;
59970;SDS011;45825;45.434;9.116;2023-04-15T02:02:24;5.32;;;2.50;;
59970;SDS011;45825;45.434;9.116;2023-04-15T02:04:49;7.68;;;2.50;;
59970;SDS011;45825;45.434;9.116;2023-04-15T02:07:15;5.70;;;2.70;;
59970;SDS011;45825;45.434;9.116;2023-04-15T02:09:40;6.00;;;3.00;;
59970;SDS011;45825;45.434;9.116;2023-04-15T02:12:05;6.63;;;3.22;;
59970;SDS011;45825;45.434;9.116;2023-04-15T02:14:31;8.20;;;3.50;;
59970;SDS011;45825;45.434;9.116;2023-04-15T02:16:56;7.05;;;3.65;;
59970;SDS011;45825;45.434;9.116;2023-04-15T02:19:22;6.68;;;4.00;;
59970;SDS011;45825;45.434;9.116;2023-04-15T02:21:47;8.05;;;3.80;;
59970;SDS011;45825;45.434;9.116;2023-04-15T02:24:12;8.30;;;4.10;;
59970;SDS011;45825;45.434;9.116;2023-04-15T02:26:37;6.97;;;4.18;;
59970;SDS011;45825;45.434;9.116;2023-04-15T02:29:03;9.20;;;4.90;;
59970;SDS011;45825;45.434;9.116;2023-04-15T02:31:29;7.88;;;4.30;;
59970;SDS011;45825;45.434;9.116;2023-04-15T02:33:54;8.55;;;4.38;;
59970;SDS011;45825;45.434;9.116;2023-04-15T02:36:20;8.60;;;4.53;;
59970;SDS011;45825;45.434;9.116;2023-04-15T02:38:45;9.27;;;4.80;;
59970;SDS011;45825;45.434;9.116;2023-04-15T02:41:10;8.45;;;4.47;;
59970;SDS011;45825;45.434;9.116;2023-04-15T02:43:36;9.50;;;5.07;;
59970;SDS011;45825;45.434;9.116;2023-04-15T02:46:03;8.13;;;4.72;;
59970;SDS011;45825;45.434;9.116;2023-04-15T02:48:29;8.15;;;5.03;;
59970;SDS011;45825;45.434;9.116;2023-04-15T02:51:09;8.00;;;4.47;;
59970;SDS011;45825;45.434;9.116;2023-04-15T02:53:43;9.13;;;4.70;;
59970;SDS011;45825;45.434;9.116;2023-04-15T02:56:09;11.65;;;5.38;;
59970;SDS011;45825;45.434;9.116;2023-04-15T02:58:35;9.68;;;4.63;;
59970;SDS011;45825;45.434;9.116;2023-04-15T03:01:00;8.07;;;4.80;;
59970;SDS011;45825;45.434;9.116;2023-04-15T03:03:26;8.15;;;5.25;;
59970;SDS011;45825;45.434;9.116;2023-04-15T03:05:52;9.20;;;5.72;;
59970;SDS011;45825;45.434;9.116;2023-04-15T03:08:17;9.27;;;5.07;;
59970;SDS011;45825;45.434;9.116;2023-04-15T03:10:43;8.15;;;4.93;;
59970;SDS011;45825;45.434;9.116;2023-04-15T03:13:08;7.93;;;4.97;;
59970;SDS011;45825;45.434;9.116;2023-04-15T03:15:34;9.32;;;5.22;;
59970;SDS011;45825;45.434;9.116;2023-04-15T03:17:59;9.88;;;5.60;;
59970;SDS011;45825;45.434;9.116;2023-04-15T03:20:24;7.75;;;5.20;;
59970;SDS011;45825;45.434;9.116;2023-04-15T03:22:49;8.90;;;5.57;;
59970;SDS011;45825;45.434;9.116;2023-04-15T03:25:15;8.15;;;5.15;;
59970;SDS011;45825;45.434;9.116;2023-04-15T03:27:40;8.98;;;5.75;;
59970;SDS011;45825;45.434;9.116;2023-04-15T03:30:06;9.27;;;5.63;;
59970;SDS011;45825;45.434;9.116;2023-04-15T03:32:34;11.98;;;5.70;;
59970;SDS011;45825;45.434;9.116;2023-04-15T03:34:59;9.15;;;5.90;;
59970;SDS011;45825;45.434;9.116;2023-04-15T03:37:25;10.10;;;5.90;;
59970;SDS011;45825;45.434;9.116;2023-04-15T03:39:50;10.15;;;5.68;;
59970;SDS011;45825;45.434;9.116;2023-04-15T03:42:16;11.20;;;6.18;;
59970;SDS011;45825;45.434;9.116;2023-04-15T03:44:41;9.15;;;5.85;;
59970;SDS011;45825;45.434;9.116;2023-04-15T03:47:06;10.35;;;6.25;;
59970;SDS011;45825;45.434;9.116;2023-04-15T03:49:32;8.90;;;5.80;;
59970;SDS011;45825;45.434;9.116;2023-04-15T03:51:57;10.15;;;6.68;;
59970;SDS011;45825;45.434;9.116;2023-04-15T03:54:23;11.68;;;6.35;;
59970;SDS011;45825;45.434;9.116;2023-04-15T03:56:50;9.43;;;6.45;;
59970;SDS011;45825;45.434;9.116;2023-04-15T03:59:15;10.35;;;6.43;;
59970;SDS011;45825;45.434;9.116;2023-04-15T04:01:40;9.43;;;6.30;;
59970;SDS011;45825;45.434;9.116;2023-04-15T04:04:06;11.02;;;6.35;;
59970;SDS011;45825;45.434;9.116;2023-04-15T04:06:31;9.15;;;6.35;;
59970;SDS011;45825;45.434;9.116;2023-04-15T04:08:56;9.35;;;6.28;;
59970;SDS011;45825;45.434;9.116;2023-04-15T04:11:22;10.13;;;6.45;;
59970;SDS011;45825;45.434;9.116;2023-04-15T04:13:47;11.45;;;6.10;;
59970;SDS011;45825;45.434;9.116;2023-04-15T04:16:12;9.70;;;6.30;;
59970;SDS011;45825;45.434;9.116;2023-04-15T04:18:37;9.15;;;5.97;;
59970;SDS011;45825;45.434;9.116;2023-04-15T04:21:03;9.27;;;6.28;;
59970;SDS011;45825;45.434;9.116;2023-04-15T04:23:28;9.80;;;6.40;;
59970;SDS011;45825;45.434;9.116;2023-04-15T04:25:53;10.40;;;6.07;;
59970;SDS011;45825;45.434;9.116;2023-04-15T04:28:19;10.13;;;6.25;;
59970;SDS011;45825;45.434;9.116;2023-04-15T04:30:44;10.35;;;6.65;;
59970;SDS011;45825;45.434;9.116;2023-04-15T04:33:09;9.48;;;6.30;;
59970;SDS011;45825;45.434;9.116;2023-04-15T04:35:36;9.60;;;6.38;;
59970;SDS011;45825;45.434;9.116;2023-04-15T04:38:02;10.52;;;6.80;;
59970;SDS011;45825;45.434;9.116;2023-04-15T04:40:28;10.05;;;6.70;;
59970;SDS011;45825;45.434;9.116;2023-04-15T04:42:53;9.13;;;6.10;;
59970;SDS011;45825;45.434;9.116;2023-04-15T04:45:20;10.45;;;6.88;;
59970;SDS011;45825;45.434;9.116;2023-04-15T04:47:45;11.93;;;6.93;;
59970;SDS011;45825;45.434;9.116;2023-04-15T04:50:11;11.45;;;7.30;;
59970;SDS011;45825;45.434;9.116;2023-04-15T04:52:36;11.90;;;6.82;;
59970;SDS011;45825;45.434;9.116;2023-04-15T04:55:02;10.90;;;6.72;;
59970;SDS011;45825;45.434;9.116;2023-04-15T04:57:28;10.30;;;6.85;;
59970;SDS011;45825;45.434;9.116;2023-04-15T04:59:53;10.57;;;6.65;;
59970;SDS011;45825;45.434;9.116;2023-04-15T05:02:18;10.38;;;7.10;;
59970;SDS011;45825;45.434;9.116;2023-04-15T05:04:43;10.93;;;7.63;;
59970;SDS011;45825;45.434;9.116;2023-04-15T05:07:09;11.80;;;7.35;;
59970;SDS011;45825;45.434;9.116;2023-04-15T05:09:34;10.93;;;7.20;;
59970;SDS011;45825;45.434;9.116;2023-04-15T05:12:00;11.18;;;6.75;;
59970;SDS011;45825;45.434;9.116;2023-04-15T05:14:26;10.55;;;6.85;;
59970;SDS011;45825;45.434;9.116;2023-04-15T05:16:51;9.95;;;6.70;;
59970;SDS011;45825;45.434;9.116;2023-04-15T05:19:17;9.52;;;6.25;;
59970;SDS011;45825;45.434;9.116;2023-04-15T05:21:42;9.38;;;5.93;;
59970;SDS011;45825;45.434;9.116;2023-04-15T05:24:07;10.18;;;6.75;;
59970;SDS011;45825;45.434;9.116;2023-04-15T05:26:32;10.68;;;6.25;;
59970;SDS011;45825;45.434;9.116;2023-04-15T05:28:58;10.65;;;6.10;;
59970;SDS011;45825;45.434;9.116;2023-04-15T05:31:23;10.48;;;5.78;;
59970;SDS011;45825;45.434;9.116;2023-04-15T05:33:48;10.90;;;6.30;;
59970;SDS011;45825;45.434;9.116;2023-04-15T05:36:14;10.40;;;5.88;;
59970;SDS011;45825;45.434;9.116;2023-04-15T05:38:39;9.15;;;5.38;;
59970;SDS011;45825;45.434;9.116;2023-04-15T05:41:05;9.95;;;5.75;;
59970;SDS011;45825;45.434;9.116;2023-04-15T05:43:30;11.30;;;6.05;;
59970;SDS011;45825;45.434;9.116;2023-04-15T05:45:56;8.90;;;5.70;;
59970;SDS011;45825;45.434;9.116;2023-04-15T05:48:21;11.77;;;5.88;;
59970;SDS011;45825;45.434;9.116;2023-04-15T05:50:46;8.82;;;5.63;;
59970;SDS011;45825;45.434;9.116;2023-04-15T05:53:12;9.60;;;5.60;;
59970;SDS011;45825;45.434;9.116;2023-04-15T05:55:37;10.75;;;5.90;;
59970;SDS011;45825;45.434;9.116;2023-04-15T05:58:02;10.95;;;6.07;;
59970;SDS011;45825;45.434;9.116;2023-04-15T06:00:27;12.82;;;5.80;;
59970;SDS011;45825;45.434;9.116;2023-04-15T06:02:53;9.40;;;5.57;;
59970;SDS011;45825;45.434;9.116;2023-04-15T06:05:20;11.00;;;5.60;;
59970;SDS011;45825;45.434;9.116;2023-04-15T06:07:45;9.30;;;4.93;;
59970;SDS011;45825;45.434;9.116;2023-04-15T06:10:10;9.30;;;4.35;;
59970;SDS011;45825;45.434;9.116;2023-04-15T06:12:36;10.25;;;4.72;;
59970;SDS011;45825;45.434;9.116;2023-04-15T06:15:01;7.97;;;4.28;;
59970;SDS011;45825;45.434;9.116;2023-04-15T06:17:27;8.52;;;4.45;;
59970;SDS011;45825;45.434;9.116;2023-04-15T06:19:53;9.40;;;4.55;;
59970;SDS011;45825;45.434;9.116;2023-04-15T06:22:21;7.68;;;4.47;;
59970;SDS011;45825;45.434;9.116;2023-04-15T06:24:47;8.02;;;4.80;;
59970;SDS011;45825;45.434;9.116;2023-04-15T06:27:14;8.65;;;4.70;;
59970;SDS011;45825;45.434;9.116;2023-04-15T06:29:40;8.82;;;5.10;;
59970;SDS011;45825;45.434;9.116;2023-04-15T06:32:05;10.68;;;5.03;;
59970;SDS011;45825;45.434;9.116;2023-04-15T06:34:30;8.30;;;4.82;;
59970;SDS011;45825;45.434;9.116;2023-04-15T06:36:56;8.98;;;5.05;;
59970;SDS011;45825;45.434;9.116;2023-04-15T06:39:21;8.70;;;4.93;;
59970;SDS011;45825;45.434;9.116;2023-04-15T06:41:46;7.93;;;4.70;;
59970;SDS011;45825;45.434;9.116;2023-04-15T06:44:12;7.78;;;4.85;;
59970;SDS011;45825;45.434;9.116;2023-04-15T06:46:37;9.05;;;4.78;;
59970;SDS011;45825;45.434;9.116;2023-04-15T06:49:02;7.68;;;4.78;;
59970;SDS011;45825;45.434;9.116;2023-04-15T06:51:27;10.18;;;4.70;;
59970;SDS011;45825;45.434;9.116;2023-04-15T06:53:55;8.68;;;4.70;;
59970;SDS011;45825;45.434;9.116;2023-04-15T06:56:21;8.88;;;4.90;;
59970;SDS011;45825;45.434;9.116;2023-04-15T06:58:47;9.80;;;4.75;;
59970;SDS011;45825;45.434;9.116;2023-04-15T07:01:12;8.48;;;5.07;;
59970;SDS011;45825;45.434;9.116;2023-04-15T07:03:38;9.23;;;5.00;;
59970;SDS011;45825;45.434;9.116;2023-04-15T07:06:03;7.70;;;4.95;;
59970;SDS011;45825;45.434;9.116;2023-04-15T07:08:31;8.27;;;4.80;;
59970;SDS011;45825;45.434;9.116;2023-04-15T07:10:57;11.98;;;5.85;;
59970;SDS011;45825;45.434;9.116;2023-04-15T07:13:23;13.98;;;5.95;;
59970;SDS011;45825;45.434;9.116;2023-04-15T07:15:49;8.63;;;5.20;;
59970;SDS011;45825;45.434;9.116;2023-04-15T07:18:14;8.93;;;5.72;;
59970;SDS011;45825;45.434;9.116;2023-04-15T07:20:39;9.20;;;5.68;;
59970;SDS011;45825;45.434;9.116;2023-04-15T07:23:05;9.18;;;5.43;;
59970;SDS011;45825;45.434;9.116;2023-04-15T07:25:31;8.02;;;5.13;;
59970;SDS011;45825;45.434;9.116;2023-04-15T07:27:56;10.48;;;5.40;;
59970;SDS011;45825;45.434;9.116;2023-04-15T07:30:21;8.00;;;5.47;;
59970;SDS011;45825;45.434;9.116;2023-04-15T07:32:47;12.43;;;5.53;;
59970;SDS011;45825;45.434;9.116;2023-04-15T07:35:12;9.35;;;5.30;;
59970;SDS011;45825;45.434;9.116;2023-04-15T07:37:38;9.82;;;5.50;;
59970;SDS011;45825;45.434;9.116;2023-04-15T07:40:04;10.60;;;5.70;;
59970;SDS011;45825;45.434;9.116;2023-04-15T07:42:31;9.70;;;5.25;;
59970;SDS011;45825;45.434;9.116;2023-04-15T07:44:58;8.13;;;5.30;;
59970;SDS011;45825;45.434;9.116;2023-04-15T07:47:24;7.65;;;5.03;;
59970;SDS011;45825;45.434;9.116;2023-04-15T07:49:49;8.50;;;5.13;;
59970;SDS011;45825;45.434;9.116;2023-04-15T07:52:15;9.57;;;6.10;;
59970;SDS011;45825;45.434;9.116;2023-04-15T07:54:41;7.70;;;5.85;;
59970;SDS011;45825;45.434;9.116;2023-04-15T07:57:06;9.48;;;6.20;;
59970;SDS011;45825;45.434;9.116;2023-04-15T07:59:31;9.07;;;6.40;;
59970;SDS011;45825;45.434;9.116;2023-04-15T08:01:57;11.25;;;5.88;;
59970;SDS011;45825;45.434;9.116;2023-04-15T08:04:23;9.32;;;5.72;;
59970;SDS011;45825;45.434;9.116;2023-04-15T08:06:49;9.75;;;6.05;;
59970;SDS011;45825;45.434;9.116;2023-04-15T08:09:14;10.02;;;5.97;;
59970;SDS011;45825;45.434;9.116;2023-04-15T08:11:40;12.20;;;7.47;;
59970;SDS011;45825;45.434;9.116;2023-04-15T08:14:06;12.00;;;6.18;;
59970;SDS011;45825;45.434;9.116;2023-04-15T08:16:31;12.27;;;6.90;;
59970;SDS011;45825;45.434;9.116;2023-04-15T08:18:57;10.82;;;6.72;;
59970;SDS011;45825;45.434;9.116;2023-04-15T08:21:22;12.15;;;7.20;;
59970;SDS011;45825;45.434;9.116;2023-04-15T08:23:49;11.45;;;5.88;;
59970;SDS011;45825;45.434;9.116;2023-04-15T08:26:16;10.23;;;6.18;;
59970;SDS011;45825;45.434;9.116;2023-04-15T08:28:42;9.73;;;6.03;;
59970;SDS011;45825;45.434;9.116;2023-04-15T08:31:09;8.18;;;5.78;;
59970;SDS011;45825;45.434;9.116;2023-04-15T08:33:35;10.65;;;6.20;;
59970;SDS011;45825;45.434;9.116;2023-04-15T08:36:00;10.30;;;7.00;;
59970;SDS011;45825;45.434;9.116;2023-04-15T08:38:26;12.05;;;6.20;;
59970;SDS011;45825;45.434;9.116;2023-04-15T08:40:51;11.13;;;7.72;;
59970;SDS011;45825;45.434;9.116;2023-04-15T08:43:20;12.57;;;6.45;;
59970;SDS011;45825;45.434;9.116;2023-04-15T08:45:51;11.13;;;6.70;;
59970;SDS011;45825;45.434;9.116;2023-04-15T08:48:17;10.13;;;5.90;;
59970;SDS011;45825;45.434;9.116;2023-04-15T08:50:43;8.07;;;5.45;;
59970;SDS011;45825;45.434;9.116;2023-04-15T08:53:09;9.13;;;6.25;;
59970;SDS011;45825;45.434;9.116;2023-04-15T08:55:35;9.63;;;5.95;;
59970;SDS011;45825;45.434;9.116;2023-04-15T08:58:07;9.60;;;6.00;;
59970;SDS011;45825;45.434;9.116;2023-04-15T09:00:33;11.60;;;5.80;;
59970;SDS011;45825;45.434;9.116;2023-04-15T09:02:58;9.00;;;5.65;;
59970;SDS011;45825;45.434;9.116;2023-04-15T09:05:24;8.95;;;5.35;;
59970;SDS011;45825;45.434;9.116;2023-04-15T09:07:50;7.68;;;5.55;;
59970;SDS011;45825;45.434;9.116;2023-04-15T09:10:15;9.40;;;5.70;;
59970;SDS011;45825;45.434;9.116;2023-04-15T09:12:41;10.45;;;5.47;;
59970;SDS011;45825;45.434;9.116;2023-04-15T09:15:06;9.57;;;5.38;;
59970;SDS011;45825;45.434;9.116;2023-04-15T09:17:36;10.23;;;4.80;;
59970;SDS011;45825;45.434;9.116;2023-04-15T09:20:10;9.20;;;5.38;;
59970;SDS011;45825;45.434;9.116;2023-04-15T09:22:38;9.27;;;5.07;;
59970;SDS011;45825;45.434;9.116;2023-04-15T09:27:45;9.45;;;4.68;;
59970;SDS011;45825;45.434;9.116;2023-04-15T09:30:13;9.32;;;4.85;;
59970;SDS011;45825;45.434;9.116;2023-04-15T09:32:47;7.75;;;4.45;;
59970;SDS011;45825;45.434;9.116;2023-04-15T09:35:17;9.98;;;4.38;;
59970;SDS011;45825;45.434;9.116;2023-04-15T09:37:43;8.18;;;4.35;;
59970;SDS011;45825;45.434;9.116;2023-04-15T09:40:08;10.07;;;4.47;;
59970;SDS011;45825;45.434;9.116;2023-04-15T09:42:34;10.65;;;4.82;;
59970;SDS011;45825;45.434;9.116;2023-04-15T09:45:07;8.60;;;3.80;;
59970;SDS011;45825;45.434;9.116;2023-04-15T09:47:36;8.63;;;4.55;;
59970;SDS011;45825;45.434;9.116;2023-04-15T09:50:02;9.65;;;4.57;;
59970;SDS011;45825;45.434;9.116;2023-04-15T09:52:27;9.50;;;4.00;;
59970;SDS011;45825;45.434;9.116;2023-04-15T09:54:53;7.47;;;4.10;;
59970;SDS011;45825;45.434;9.116;2023-04-15T09:57:21;8.57;;;4.55;;
59970;SDS011;45825;45.434;9.116;2023-04-15T09:59:48;9.88;;;4.35;;
59970;SDS011;45825;45.434;9.116;2023-04-15T10:02:13;9.20;;;4.25;;
59970;SDS011;45825;45.434;9.116;2023-04-15T10:04:41;7.82;;;3.95;;
59970;SDS011;45825;45.434;9.116;2023-04-15T10:07:09;10.63;;;4.35;;
59970;SDS011;45825;45.434;9.116;2023-04-15T10:09:36;8.93;;;4.38;;
59970;SDS011;45825;45.434;9.116;2023-04-15T10:12:03;9.38;;;4.50;;
59970;SDS011;45825;45.434;9.116;2023-04-15T10:14:30;6.82;;;3.58;;
59970;SDS011;45825;45.434;9.116;2023-04-15T10:16:58;9.38;;;4.30;;
59970;SDS011;45825;45.434;9.116;2023-04-15T10:19:26;10.20;;;4.15;;
59970;SDS011;45825;45.434;9.116;2023-04-15T10:21:52;8.52;;;3.90;;
59970;SDS011;45825;45.434;9.116;2023-04-15T10:24:19;8.48;;;3.80;;
59970;SDS011;45825;45.434;9.116;2023-04-15T10:26:45;9.38;;;4.00;;
59970;SDS011;45825;45.434;9.116;2023-04-15T10:29:11;8.25;;;3.53;;
59970;SDS011;45825;45.434;9.116;2023-04-15T10:31:37;9.48;;;3.60;;
59970;SDS011;45825;45.434;9.116;2023-04-15T10:34:05;7.95;;;3.40;;
59970;SDS011;45825;45.434;9.116;2023-04-15T10:36:31;7.53;;;3.40;;
59970;SDS011;45825;45.434;9.116;2023-04-15T10:38:57;9.20;;;3.60;;
59970;SDS011;45825;45.434;9.116;2023-04-15T10:41:26;8.05;;;3.60;;
59970;SDS011;45825;45.434;9.116;2023-04-15T10:49:07;8.37;;;3.57;;
59970;SDS011;45825;45.434;9.116;2023-04-15T10:51:36;10.48;;;3.50;;
59970;SDS011;45825;45.434;9.116;2023-04-15T10:54:08;7.88;;;3.50;;
59970;SDS011;45825;45.434;9.116;2023-04-15T10:56:42;9.10;;;3.28;;
59970;SDS011;45825;45.434;9.116;2023-04-15T10:59:10;9.05;;;3.50;;
59970;SDS011;45825;45.434;9.116;2023-04-15T11:01:49;8.52;;;3.30;;
59970;SDS011;45825;45.434;9.116;2023-04-15T11:04:44;8.07;;;3.50;;
59970;SDS011;45825;45.434;9.116;2023-04-15T11:07:38;9.40;;;3.60;;
59970;SDS011;45825;45.434;9.116;2023-04-15T11:12:45;9.13;;;3.35;;
59970;SDS011;45825;45.434;9.116;2023-04-15T11:17:58;8.70;;;3.50;;
59970;SDS011;45825;45.434;9.116;2023-04-15T11:20:35;12.23;;;3.53;;
59970;SDS011;45825;45.434;9.116;2023-04-15T11:23:01;8.98;;;3.17;;
59970;SDS011;45825;45.434;9.116;2023-04-15T11:25:27;8.88;;;3.20;;
59970;SDS011;45825;45.434;9.116;2023-04-15T11:27:54;8.23;;;3.40;;
59970;SDS011;45825;45.434;9.116;2023-04-15T11:32:47;7.97;;;3.33;;
59970;SDS011;45825;45.434;9.116;2023-04-15T11:35:13;5.57;;;2.95;;
59970;SDS011;45825;45.434;9.116;2023-04-15T11:37:40;9.23;;;3.42;;
59970;SDS011;45825;45.434;9.116;2023-04-15T11:40:06;7.63;;;3.25;;
59970;SDS011;45825;45.434;9.116;2023-04-15T11:42:32;8.70;;;3.45;;
59970;SDS011;45825;45.434;9.116;2023-04-15T11:45:11;7.97;;;3.78;;
59970;SDS011;45825;45.434;9.116;2023-04-15T11:47:37;8.13;;;3.15;;
59970;SDS011;45825;45.434;9.116;2023-04-15T11:53:01;9.57;;;3.38;;
59970;SDS011;45825;45.434;9.116;2023-04-15T11:55:30;10.25;;;2.88;;
59970;SDS011;45825;45.434;9.116;2023-04-15T11:58:11;8.40;;;3.40;;
59970;SDS011;45825;45.434;9.116;2023-04-15T12:00:49;10.13;;;3.17;;
59970;SDS011;45825;45.434;9.116;2023-04-15T12:03:20;8.45;;;3.03;;
59970;SDS011;45825;45.434;9.116;2023-04-15T12:13:55;6.72;;;2.67;;
59970;SDS011;45825;45.434;9.116;2023-04-15T12:16:28;5.95;;;2.72;;
59970;SDS011;45825;45.434;9.116;2023-04-15T12:18:55;7.00;;;2.70;;
59970;SDS011;45825;45.434;9.116;2023-04-15T12:21:23;10.05;;;2.75;;
59970;SDS011;45825;45.434;9.116;2023-04-15T12:23:50;6.60;;;2.67;;
59970;SDS011;45825;45.434;9.116;2023-04-15T12:29:09;7.43;;;2.90;;
59970;SDS011;45825;45.434;9.116;2023-04-15T12:31:36;7.72;;;2.80;;
59970;SDS011;45825;45.434;9.116;2023-04-15T12:34:30;8.38;;;2.28;;
59970;SDS011;45825;45.434;9.116;2023-04-15T12:37:00;9.02;;;3.20;;
59970;SDS011;45825;45.434;9.116;2023-04-15T12:39:28;6.85;;;2.63;;
59970;SDS011;45825;45.434;9.116;2023-04-15T12:41:55;7.05;;;2.55;;
59970;SDS011;45825;45.434;9.116;2023-04-15T12:44:23;7.70;;;3.00;;
59970;SDS011;45825;45.434;9.116;2023-04-15T12:46:49;7.70;;;2.85;;
59970;SDS011;45825;45.434;9.116;2023-04-15T12:49:16;9.10;;;3.20;;
59970;SDS011;45825;45.434;9.116;2023-04-15T12:51:44;6.13;;;2.40;;
59970;SDS011;45825;45.434;9.116;2023-04-15T12:54:09;8.23;;;2.40;;
59970;SDS011;45825;45.434;9.116;2023-04-15T12:56:35;7.03;;;2.88;;
59970;SDS011;45825;45.434;9.116;2023-04-15T12:59:01;7.63;;;2.72;;
59970;SDS011;45825;45.434;9.116;2023-04-15T13:01:27;6.80;;;2.28;;
59970;SDS011;45825;45.434;9.116;2023-04-15T13:03:52;5.68;;;2.35;;
59970;SDS011;45825;45.434;9.116;2023-04-15T13:06:18;6.40;;;1.98;;
59970;SDS011;45825;45.434;9.116;2023-04-15T13:08:44;5.50;;;1.92;;
59970;SDS011;45825;45.434;9.116;2023-04-15T13:11:10;4.90;;;1.67;;
59970;SDS011;45825;45.434;9.116;2023-04-15T13:13:36;6.15;;;1.60;;
59970;SDS011;45825;45.434;9.116;2023-04-15T13:16:03;8.45;;;1.55;;
59970;SDS011;45825;45.434;9.116;2023-04-15T13:18:28;5.00;;;1.40;;
59970;SDS011;45825;45.434;9.116;2023-04-15T13:20:55;5.93;;;2.30;;
59970;SDS011;45825;45.434;9.116;2023-04-15T13:23:21;6.13;;;2.17;;
59970;SDS011;45825;45.434;9.116;2023-04-15T13:25:46;6.82;;;1.95;;
59970;SDS011;45825;45.434;9.116;2023-04-15T13:28:11;6.93;;;1.90;;
59970;SDS011;45825;45.434;9.116;2023-04-15T13:30:37;7.25;;;2.05;;
59970;SDS011;45825;45.434;9.116;2023-04-15T13:33:03;8.82;;;2.28;;
59970;SDS011;45825;45.434;9.116;2023-04-15T13:35:30;6.60;;;2.03;;
59970;SDS011;45825;45.434;9.116;2023-04-15T13:37:56;6.60;;;1.70;;
59970;SDS011;45825;45.434;9.116;2023-04-15T13:40:21;8.27;;;2.05;;
59970;SDS011;45825;45.434;9.116;2023-04-15T13:42:47;6.65;;;1.98;;
59970;SDS011;45825;45.434;9.116;2023-04-15T13:45:13;7.10;;;2.00;;
59970;SDS011;45825;45.434;9.116;2023-04-15T13:47:39;5.97;;;2.00;;
59970;SDS011;45825;45.434;9.116;2023-04-15T13:50:05;6.72;;;2.20;;
59970;SDS011;45825;45.434;9.116;2023-04-15T13:52:30;6.30;;;1.95;;
59970;SDS011;45825;45.434;9.116;2023-04-15T13:54:57;5.90;;;1.85;;
59970;SDS011;45825;45.434;9.116;2023-04-15T13:57:22;7.65;;;1.90;;
59970;SDS011;45825;45.434;9.116;2023-04-15T13:59:48;7.32;;;2.03;;
59970;SDS011;45825;45.434;9.116;2023-04-15T14:02:13;7.32;;;2.20;;
59970;SDS011;45825;45.434;9.116;2023-04-15T14:04:38;7.63;;;1.90;;
59970;SDS011;45825;45.434;9.116;2023-04-15T14:07:04;7.53;;;2.00;;
59970;SDS011;45825;45.434;9.116;2023-04-15T14:09:30;6.30;;;1.80;;
59970;SDS011;45825;45.434;9.116;2023-04-15T14:11:56;6.10;;;1.80;;
59970;SDS011;45825;45.434;9.116;2023-04-15T14:14:23;6.30;;;1.80;;
59970;SDS011;45825;45.434;9.116;2023-04-15T14:16:49;5.28;;;1.70;;
59970;SDS011;45825;45.434;9.116;2023-04-15T14:19:14;6.45;;;2.20;;
59970;SDS011;45825;45.434;9.116;2023-04-15T14:21:41;5.75;;;1.75;;
59970;SDS011;45825;45.434;9.116;2023-04-15T14:24:07;7.10;;;1.98;;
59970;SDS011;45825;45.434;9.116;2023-04-15T14:26:32;6.78;;;1.80;;
59970;SDS011;45825;45.434;9.116;2023-04-15T14:28:58;7.10;;;1.80;;
59970;SDS011;45825;45.434;9.116;2023-04-15T14:31:24;7.30;;;1.95;;
59970;SDS011;45825;45.434;9.116;2023-04-15T14:33:49;7.13;;;2.05;;
59970;SDS011;45825;45.434;9.116;2023-04-15T14:36:15;6.63;;;1.90;;
59970;SDS011;45825;45.434;9.116;2023-04-15T14:38:40;7.82;;;2.03;;
59970;SDS011;45825;45.434;9.116;2023-04-15T14:41:06;7.13;;;2.25;;
59970;SDS011;45825;45.434;9.116;2023-04-15T14:43:35;5.85;;;1.98;;
59970;SDS011;45825;45.434;9.116;2023-04-15T14:46:00;6.85;;;1.85;;
59970;SDS011;45825;45.434;9.116;2023-04-15T14:48:26;7.50;;;2.13;;
59970;SDS011;45825;45.434;9.116;2023-04-15T14:50:55;8.35;;;1.50;;
59970;SDS011;45825;45.434;9.116;2023-04-15T14:53:20;6.13;;;1.83;;
59970;SDS011;45825;45.434;9.116;2023-04-15T14:55:45;5.32;;;1.98;;
59970;SDS011;45825;45.434;9.116;2023-04-15T14:58:11;7.88;;;2.05;;
59970;SDS011;45825;45.434;9.116;2023-04-15T15:00:39;8.00;;;2.20;;
59970;SDS011;45825;45.434;9.116;2023-04-15T15:03:09;9.90;;;2.20;;
59970;SDS011;45825;45.434;9.116;2023-04-15T15:05:39;9.05;;;2.17;;
59970;SDS011;45825;45.434;9.116;2023-04-15T15:08:08;7.28;;;2.00;;
59970;SDS011;45825;45.434;9.116;2023-04-15T15:10:35;9.10;;;1.92;;